createdAt,value
2022-07-31T00:02:07.205Z,100730.72
2022-07-31T00:06:09.187Z,100728.88
2022-07-31T00:10:10.999Z,100728.88
2022-07-31T00:14:12.679Z,100724.44
2022-07-31T00:18:14.331Z,100731.34
2022-07-31T00:22:15.982Z,100733.97
2022-07-31T00:26:17.627Z,100728.72
2022-07-31T00:30:19.253Z,100725.28
2022-07-31T00:34:20.858Z,100732.28
2022-07-31T00:38:26.842Z,100727.97
2022-07-31T00:42:29.213Z,100727.91
2022-07-31T00:46:31.259Z,100719.31
2022-07-31T00:50:33.632Z,100722.03
2022-07-31T00:54:35.622Z,100709.94
2022-07-31T00:58:37.229Z,100706.59
2022-07-31T01:02:46.343Z,100706.72
2022-07-31T01:06:48.394Z,100711.19
2022-07-31T01:11:02.290Z,100709.56
2022-07-31T01:15:09.801Z,100707.06
2022-07-31T01:19:42.060Z,100713.28
2022-07-31T01:24:12.112Z,100713.41
2022-07-31T01:29:16.617Z,100708.25
2022-07-31T01:33:22.801Z,100714.41
2022-07-31T01:37:32.208Z,100722.28
2022-07-31T01:41:40.630Z,100711.03
2022-07-31T01:45:45.268Z,100713.72
2022-07-31T01:49:50.233Z,100702.44
2022-07-31T01:53:55.723Z,100709.47
2022-07-31T01:57:58.160Z,100695.59
2022-07-31T02:02:01.343Z,100700.84
2022-07-31T02:06:04.742Z,100698.25
2022-07-31T02:10:09.924Z,100699.16
2022-07-31T02:14:14.036Z,100700.03
2022-07-31T02:18:16.873Z,100705.31
2022-07-31T02:22:34.007Z,100707.06
2022-07-31T02:26:36.478Z,100703.59
2022-07-31T02:30:40.714Z,100703.63
2022-07-31T02:34:45.189Z,100701.94
2022-07-31T02:38:49.149Z,100695.88
2022-07-31T02:42:52.645Z,100695.00
2022-07-31T02:46:55.301Z,100688.91
2022-07-31T02:50:57.569Z,100677.63
2022-07-31T02:54:59.686Z,100678.47
2022-07-31T02:59:01.345Z,100693.28
2022-07-31T03:03:12.189Z,100683.75
2022-07-31T03:07:14.117Z,100680.31
2022-07-31T03:11:16.980Z,100680.38
2022-07-31T03:15:20.898Z,100678.69
2022-07-31T03:19:23.549Z,100682.19
2022-07-31T03:23:28.098Z,100681.34
2022-07-31T03:27:38.673Z,100683.97
2022-07-31T03:31:40.247Z,100685.69
2022-07-31T03:35:44.548Z,100683.91
2022-07-31T03:39:46.972Z,100679.56
2022-07-31T03:43:49.413Z,100686.47
2022-07-31T03:47:54.364Z,100684.75
2022-07-31T03:51:55.998Z,100685.63
2022-07-31T03:55:57.941Z,100689.97
2022-07-31T04:00:01.576Z,100689.94
2022-07-31T04:04:05.848Z,100682.97
2022-07-31T04:08:15.862Z,100691.63
2022-07-31T04:12:18.604Z,100682.88
2022-07-31T04:16:20.281Z,100687.25
2022-07-31T04:20:22.601Z,100691.59
2022-07-31T04:24:24.355Z,100690.72
2022-07-31T04:28:39.565Z,100696.81
2022-07-31T04:32:41.968Z,100697.66
2022-07-31T04:36:49.303Z,100696.75
2022-07-31T04:40:51.572Z,100694.97
2022-07-31T04:44:53.221Z,100697.56
2022-07-31T04:48:56.477Z,100705.38
2022-07-31T04:53:00.997Z,100706.25
2022-07-31T04:57:08.064Z,100704.56
2022-07-31T05:01:09.710Z,100708.03
2022-07-31T05:05:13.893Z,100715.00
2022-07-31T05:09:25.357Z,100710.69
2022-07-31T05:13:31.272Z,100710.69
2022-07-31T05:17:33.113Z,100708.97
2022-07-31T05:21:54.211Z,100712.47
2022-07-31T05:26:09.934Z,100715.09
2022-07-31T05:30:12.379Z,100712.47
2022-07-31T05:34:14.197Z,100715.91
2022-07-31T05:38:16.070Z,100716.66
2022-07-31T05:42:44.800Z,100717.44
2022-07-31T05:47:07.560Z,100722.59
2022-07-31T05:51:11.040Z,100711.22
2022-07-31T05:55:12.674Z,100707.78
2022-07-31T05:59:35.410Z,100705.13
2022-07-31T06:03:51.596Z,100711.19
2022-07-31T06:08:01.265Z,100706.81
2022-07-31T06:12:07.215Z,100707.66
2022-07-31T06:16:13.775Z,100712.00
2022-07-31T06:20:15.807Z,100708.47
2022-07-31T06:24:17.789Z,100715.34
2022-07-31T06:28:20.188Z,100715.22
2022-07-31T06:32:31.085Z,100708.97
2022-07-31T06:36:32.771Z,100704.56
2022-07-31T06:40:36.506Z,100714.94
2022-07-31T06:45:09.682Z,100714.13
2022-07-31T06:49:30.289Z,100714.91
2022-07-31T06:53:32.032Z,100717.41
2022-07-31T06:57:33.912Z,100715.38
2022-07-31T07:01:35.675Z,100726.44
2022-07-31T07:05:37.375Z,100725.34
2022-07-31T07:09:39.049Z,100728.78
2022-07-31T07:13:45.536Z,100719.25
2022-07-31T07:17:49.717Z,100719.41
2022-07-31T07:22:02.725Z,100715.47
2022-07-31T07:26:05.403Z,100713.84
2022-07-31T07:30:07.589Z,100711.09
2022-07-31T07:34:09.891Z,100714.31
2022-07-31T07:38:11.543Z,100712.47
2022-07-31T07:42:13.827Z,100714.06
2022-07-31T07:46:15.530Z,100713.00
2022-07-31T07:50:22.802Z,100701.56
2022-07-31T07:54:55.252Z,100699.06
2022-07-31T07:59:22.616Z,100681.44
2022-07-31T08:03:49.253Z,100687.84
2022-07-31T08:07:53.449Z,100678.47
2022-07-31T08:12:13.210Z,100671.41
2022-07-31T08:16:33.505Z,100671.84
2022-07-31T08:20:37.990Z,100668.44
2022-07-31T08:24:40.540Z,100666.44
2022-07-31T08:28:50.069Z,100668.84
2022-07-31T08:32:53.126Z,100665.97
2022-07-31T08:36:56.514Z,100663.41
2022-07-31T08:40:58.293Z,100662.63
2022-07-31T08:45:00.346Z,100666.88
2022-07-31T08:49:07.761Z,100659.63
2022-07-31T08:53:15.094Z,100660.22
2022-07-31T08:57:27.668Z,100652.63
2022-07-31T09:01:30.762Z,100651.34
2022-07-31T09:05:42.675Z,100650.84
2022-07-31T09:09:52.025Z,100634.78
2022-07-31T09:14:02.282Z,100636.94
2022-07-31T09:18:25.059Z,100623.09
2022-07-31T09:22:42.937Z,100627.69
2022-07-31T09:26:44.683Z,100618.16
2022-07-31T09:30:56.969Z,100609.53
2022-07-31T09:35:17.584Z,100597.63
2022-07-31T09:39:27.091Z,100595.19
2022-07-31T09:44:10.179Z,100596.03
2022-07-31T09:48:18.361Z,100598.63
2022-07-31T09:52:30.492Z,100590.44
2022-07-31T09:56:33.579Z,100588.66
2022-07-31T10:00:36.902Z,100589.44
2022-07-31T10:04:39.546Z,100585.31
2022-07-31T10:08:48.419Z,100577.91
2022-07-31T10:13:22.871Z,100571.47
2022-07-31T10:17:36.101Z,100573.16
2022-07-31T10:21:43.684Z,100559.38
2022-07-31T10:26:01.634Z,100556.81
2022-07-31T10:30:06.254Z,100549.75
2022-07-31T10:34:14.572Z,100539.97
2022-07-31T10:38:47.675Z,100538.41
2022-07-31T10:43:24.437Z,100523.53
2022-07-31T10:47:59.211Z,100515.25
2022-07-31T10:52:32.486Z,100521.88
2022-07-31T10:57:07.216Z,100501.28
2022-07-31T11:01:21.171Z,100502.13
2022-07-31T11:06:00.993Z,100490.72
2022-07-31T11:10:23.107Z,100480.31
2022-07-31T11:14:40.156Z,100479.75
2022-07-31T11:19:06.243Z,100480.88
2022-07-31T11:23:08.581Z,100465.78
2022-07-31T11:27:10.142Z,100466.31
2022-07-31T11:31:11.902Z,100462.25
2022-07-31T11:35:24.691Z,100451.81
2022-07-31T11:39:36.899Z,100457.50
2022-07-31T11:43:43.863Z,100450.00
2022-07-31T11:48:10.896Z,100451.16
2022-07-31T11:52:31.123Z,100444.41
2022-07-31T11:56:34.178Z,100437.25
2022-07-31T12:00:35.827Z,100431.88
2022-07-31T12:04:38.211Z,100421.75
2022-07-31T12:08:40.296Z,100414.63
2022-07-31T12:12:42.350Z,100404.63
2022-07-31T12:16:43.923Z,100396.41
2022-07-31T12:20:53.737Z,100396.28
2022-07-31T12:25:06.034Z,100384.34
2022-07-31T12:29:11.968Z,100394.75
2022-07-31T12:33:13.690Z,100388.69
2022-07-31T12:37:16.948Z,100386.94
2022-07-31T12:41:18.557Z,100376.19
2022-07-31T12:45:51.597Z,100368.88
2022-07-31T12:49:53.904Z,100369.22
2022-07-31T12:53:55.460Z,100365.22
2022-07-31T12:57:57.275Z,100362.34
2022-07-31T13:01:58.916Z,100354.56
2022-07-31T13:06:00.604Z,100338.59
2022-07-31T13:10:19.941Z,100341.09
2022-07-31T13:14:24.059Z,100333.34
2022-07-31T13:18:25.668Z,100327.09
2022-07-31T13:22:27.612Z,100329.47
2022-07-31T13:26:29.461Z,100322.06
2022-07-31T13:30:31.130Z,100320.31
2022-07-31T13:34:32.718Z,100310.28
2022-07-31T13:38:34.364Z,100312.47
2022-07-31T13:42:35.927Z,100307.53
2022-07-31T13:46:37.583Z,100283.81
2022-07-31T13:50:42.394Z,100286.53
2022-07-31T13:54:43.980Z,100297.06
2022-07-31T13:58:46.295Z,100291.00
2022-07-31T14:02:49.958Z,100284.44
2022-07-31T14:06:51.802Z,100281.94
2022-07-31T14:10:55.942Z,100268.03
2022-07-31T14:14:57.619Z,100259.75
2022-07-31T14:18:59.206Z,100266.84
2022-07-31T14:23:02.577Z,100265.22
2022-07-31T14:27:04.222Z,100267.06
2022-07-31T14:31:05.833Z,100265.91
2022-07-31T14:35:08.696Z,100267.44
2022-07-31T14:39:10.341Z,100265.97
2022-07-31T14:43:12.535Z,100256.88
2022-07-31T14:47:14.198Z,100250.94
2022-07-31T14:51:19.247Z,100263.34
2022-07-31T14:55:21.018Z,100254.44
2022-07-31T14:59:22.861Z,100251.09
2022-07-31T15:03:24.478Z,100247.16
2022-07-31T15:07:35.309Z,100253.75
2022-07-31T15:12:00.480Z,100248.94
2022-07-31T15:15:59.805Z,100233.38
2022-07-31T15:20:01.456Z,100241.72
2022-07-31T15:24:03.149Z,100238.34
2022-07-31T15:28:04.764Z,100228.81
2022-07-31T15:32:06.841Z,100237.69
2022-07-31T15:36:11.202Z,100225.78
2022-07-31T15:40:17.233Z,100223.94
2022-07-31T15:44:18.862Z,100218.13
2022-07-31T15:48:20.457Z,100220.66
2022-07-31T15:52:22.125Z,100210.34
2022-07-31T15:56:24.158Z,100206.16
2022-07-31T16:00:26.731Z,100208.69
2022-07-31T16:04:31.652Z,100202.19
2022-07-31T16:08:35.393Z,100208.09
2022-07-31T16:12:37.574Z,100204.84
2022-07-31T16:16:43.022Z,100203.13
2022-07-31T16:20:47.254Z,100205.88
2022-07-31T16:24:48.825Z,100201.84
2022-07-31T16:28:54.004Z,100194.28
2022-07-31T16:32:56.015Z,100199.22
2022-07-31T16:36:57.702Z,100195.31
2022-07-31T16:40:59.339Z,100193.13
2022-07-31T16:45:01.036Z,100200.34
2022-07-31T16:49:02.838Z,100191.31
2022-07-31T16:54:11.051Z,100195.28
2022-07-31T16:57:50.247Z,100189.44
2022-07-31T17:01:57.955Z,100197.88
2022-07-31T17:06:03.827Z,100193.91
2022-07-31T17:10:05.974Z,100199.31
2022-07-31T17:14:07.642Z,100190.75
2022-07-31T17:18:09.299Z,100195.03
2022-07-31T17:22:11.740Z,100190.88
2022-07-31T17:26:21.592Z,100202.34
2022-07-31T17:30:23.945Z,100194.47
2022-07-31T17:34:25.639Z,100208.59
2022-07-31T17:38:27.252Z,100214.66
2022-07-31T17:42:28.860Z,100209.84
2022-07-31T17:46:36.235Z,100222.28
2022-07-31T17:50:38.801Z,100214.56
2022-07-31T17:54:41.082Z,100228.31
2022-07-31T17:58:43.598Z,100233.63
2022-07-31T18:02:45.237Z,100234.28
2022-07-31T18:06:49.365Z,100229.66
2022-07-31T18:10:54.638Z,100243.63
2022-07-31T18:14:56.543Z,100246.75
2022-07-31T18:18:58.163Z,100245.31
2022-07-31T18:22:59.742Z,100246.09
2022-07-31T18:27:02.040Z,100259.06
2022-07-31T18:31:03.686Z,100263.03
2022-07-31T18:35:06.193Z,100256.50
2022-07-31T18:39:08.006Z,100259.72
2022-07-31T18:43:09.722Z,100261.13
2022-07-31T18:47:11.342Z,100273.13
2022-07-31T18:51:13.070Z,100269.44
2022-07-31T18:55:14.713Z,100273.59
2022-07-31T18:59:16.353Z,100280.38
2022-07-31T19:03:18.542Z,100273.00
2022-07-31T19:07:20.343Z,100281.25
2022-07-31T19:11:23.285Z,100278.97
2022-07-31T19:15:24.908Z,100279.47
2022-07-31T19:19:28.386Z,100295.59
2022-07-31T19:23:49.640Z,100303.06
2022-07-31T19:27:51.212Z,100304.34
2022-07-31T19:31:52.977Z,100303.72
2022-07-31T19:36:00.680Z,100301.31
2022-07-31T19:40:05.953Z,100307.84
2022-07-31T19:44:08.225Z,100323.94
2022-07-31T19:48:09.818Z,100325.13
2022-07-31T19:52:11.562Z,100332.50
2022-07-31T19:56:19.677Z,100337.03
2022-07-31T20:00:22.087Z,100334.50
2022-07-31T20:04:23.755Z,100339.06
2022-07-31T20:08:25.464Z,100334.88
2022-07-31T20:12:27.483Z,100335.94
2022-07-31T20:16:29.111Z,100334.47
2022-07-31T20:20:31.006Z,100339.88
2022-07-31T20:24:33.148Z,100341.91
2022-07-31T20:28:35.129Z,100344.84
2022-07-31T20:32:37.941Z,100344.91
2022-07-31T20:36:50.214Z,100339.91
2022-07-31T20:40:55.422Z,100342.75
2022-07-31T20:44:57.386Z,100342.09
2022-07-31T20:49:00.034Z,100338.84
2022-07-31T20:53:01.832Z,100349.56
2022-07-31T20:57:03.517Z,100348.84
2022-07-31T21:01:05.193Z,100352.59
2022-07-31T21:05:07.304Z,100352.69
2022-07-31T21:09:08.927Z,100356.38
2022-07-31T21:13:10.758Z,100353.84
2022-07-31T21:17:12.893Z,100357.47
2022-07-31T21:21:14.559Z,100361.19
2022-07-31T21:25:16.789Z,100372.56
2022-07-31T21:29:18.673Z,100372.75
2022-07-31T21:33:20.560Z,100379.69
2022-07-31T21:37:23.738Z,100376.31
2022-07-31T21:41:26.021Z,100388.78
2022-07-31T21:45:30.356Z,100396.66
2022-07-31T21:49:48.760Z,100401.22
2022-07-31T21:53:50.333Z,100403.22
2022-07-31T21:57:58.726Z,100406.84
2022-07-31T22:02:02.173Z,100401.06
2022-07-31T22:06:26.115Z,100410.84
2022-07-31T22:10:32.412Z,100415.47
2022-07-31T22:14:34.192Z,100412.06
2022-07-31T22:18:36.124Z,100417.38
2022-07-31T22:22:38.837Z,100418.22
2022-07-31T22:27:00.498Z,100418.47
2022-07-31T22:31:02.353Z,100416.88
2022-07-31T22:35:05.614Z,100420.34
2022-07-31T22:39:07.278Z,100426.50
2022-07-31T22:44:09.535Z,100437.91
2022-07-31T22:47:31.682Z,100436.31
2022-07-31T22:51:38.035Z,100438.19
2022-07-31T22:55:40.449Z,100437.41
2022-07-31T22:59:43.576Z,100448.75
2022-07-31T23:03:45.176Z,100461.09
2022-07-31T23:07:46.749Z,100460.38
2022-07-31T23:11:48.603Z,100470.97
2022-07-31T23:15:50.180Z,100464.13
2022-07-31T23:19:53.712Z,100481.63
2022-07-31T23:23:55.879Z,100473.88
2022-07-31T23:27:57.476Z,100488.81
2022-07-31T23:31:59.231Z,100482.72
2022-07-31T23:36:00.913Z,100475.78
2022-07-31T23:40:02.581Z,100481.09
2022-07-31T23:44:04.529Z,100468.06
2022-07-31T23:48:06.558Z,100481.25
2022-07-31T23:52:08.729Z,100482.25
2022-07-31T23:56:18.438Z,100485.69
